Time;durP1;ratioP1;P1;durP2;ratioP2;P2;SDS_P1;SDS_P2;PMS_P1;PMS_P2;Temp;Humidity;BMP_temperature;BMP_pressure;BME280_temperature;BME280_humidity;BME280_pressure;Samples;Min_cycle;Max_cycle;Signal;HPM_P1;HPM_P2
2022/04/27 00:00:33;;;;;;;16.65;11.13;;;;;;;;;;5075610;28;20029;-72
2022/04/27 00:03:00;;;;;;;17.73;10.90;;;;;;;;;;5076963;28;20471;-72
2022/04/27 00:05:26;;;;;;;17.13;11.00;;;;;;;;;;5081525;28;20052;-72
2022/04/27 00:07:52;;;;;;;17.38;10.32;;;;;;;;;;5079830;28;20012;-72
2022/04/27 00:10:19;;;;;;;17.63;11.27;;;;;;;;;;5087719;28;20039;-71
2022/04/27 00:12:45;;;;;;;16.70;10.30;;;;;;;;;;5085577;28;20033;-72
2022/04/27 00:15:12;;;;;;;17.73;10.07;;;;;;;;;;5083002;28;20057;-72
2022/04/27 00:17:39;;;;;;;13.70;10.38;;;;;;;;;;5085532;28;20020;-71
2022/04/27 00:20:06;;;;;;;15.95;10.50;;;;;;;;;;5080640;28;20099;-72
2022/04/27 00:22:32;;;;;;;18.48;11.90;;;;;;;;;;5075378;28;20048;-72
2022/04/27 00:25:01;;;;;;;17.77;11.38;;;;;;;;;;5079674;28;20040;-71
2022/04/27 00:27:28;;;;;;;18.65;11.35;;;;;;;;;;5076474;28;20455;-72
2022/04/27 00:29:54;;;;;;;21.02;11.38;;;;;;;;;;5080700;28;20502;-72
2022/04/27 00:32:20;;;;;;;18.30;11.88;;;;;;;;;;5080874;28;20047;-73
2022/04/27 00:34:46;;;;;;;17.25;10.77;;;;;;;;;;5079466;28;20050;-73
2022/04/27 00:37:13;;;;;;;17.55;11.73;;;;;;;;;;5079768;28;20135;-72
2022/04/27 00:39:39;;;;;;;17.40;11.50;;;;;;;;;;5078986;28;20089;-72
2022/04/27 00:42:19;;;;;;;17.92;11.55;;;;;;;;;;5078750;28;20073;-72
2022/04/27 00:44:46;;;;;;;16.88;10.85;;;;;;;;;;5078318;28;20154;-73
2022/04/27 00:47:13;;;;;;;17.63;10.52;;;;;;;;;;5078866;28;20017;-74
2022/04/27 00:49:43;;;;;;;15.77;11.27;;;;;;;;;;5069042;28;20050;-72
2022/04/27 00:52:13;;;;;;;18.63;11.25;;;;;;;;;;5077042;28;20043;-72
2022/04/27 00:54:40;;;;;;;18.63;11.65;;;;;;;;;;5080045;28;20052;-72
2022/04/27 00:57:07;;;;;;;19.10;12.38;;;;;;;;;;5078005;28;20044;-72
2022/04/27 00:59:33;;;;;;;19.05;12.98;;;;;;;;;;5079704;28;20028;-71
2022/04/27 01:01:59;;;;;;;21.42;11.82;;;;;;;;;;5079290;28;20128;-72
2022/04/27 01:04:26;;;;;;;21.10;11.63;;;;;;;;;;5079227;28;20102;-71
2022/04/27 01:06:52;;;;;;;16.67;11.93;;;;;;;;;;5076736;28;20020;-71
2022/04/27 01:09:18;;;;;;;16.70;11.55;;;;;;;;;;5078041;28;20534;-73
2022/04/27 01:11:45;;;;;;;17.95;11.88;;;;;;;;;;5075330;28;20513;-71
2022/04/27 01:14:11;;;;;;;18.27;12.25;;;;;;;;;;5091480;28;20101;-72
2022/04/27 01:16:37;;;;;;;20.52;11.52;;;;;;;;;;5075056;28;20090;-72
2022/04/27 01:19:05;;;;;;;17.48;11.35;;;;;;;;;;5090545;28;20073;-73
2022/04/27 01:21:31;;;;;;;18.42;11.85;;;;;;;;;;5077387;28;20036;-71
2022/04/27 01:23:57;;;;;;;17.48;11.50;;;;;;;;;;5068448;28;20032;-71
2022/04/27 01:26:23;;;;;;;22.25;11.98;;;;;;;;;;5077560;28;20043;-74
2022/04/27 01:28:50;;;;;;;21.73;13.95;;;;;;;;;;5074397;28;20028;-71
2022/04/27 01:31:16;;;;;;;23.27;13.43;;;;;;;;;;5076800;28;20033;-72
2022/04/27 01:33:42;;;;;;;21.00;12.63;;;;;;;;;;5067043;28;20041;-72
2022/04/27 01:36:10;;;;;;;20.33;12.07;;;;;;;;;;5079180;28;20055;-72
2022/04/27 01:38:36;;;;;;;18.10;11.82;;;;;;;;;;5076787;28;20063;-72
2022/04/27 01:41:03;;;;;;;19.67;13.25;;;;;;;;;;5075115;28;20082;-71
2022/04/27 01:43:29;;;;;;;19.45;12.52;;;;;;;;;;5078441;28;20147;-72
2022/04/27 01:45:56;;;;;;;18.65;10.98;;;;;;;;;;5077400;28;20222;-71
2022/04/27 01:48:22;;;;;;;16.77;11.30;;;;;;;;;;5079505;28;20046;-71
2022/04/27 01:50:48;;;;;;;17.95;11.20;;;;;;;;;;5078430;28;20096;-72
2022/04/27 01:56:00;;;;;;;18.65;11.48;;;;;;;;;;5071256;28;20454;-72
2022/04/27 01:58:26;;;;;;;18.60;11.32;;;;;;;;;;5070882;28;20111;-72
2022/04/27 02:00:53;;;;;;;21.63;11.52;;;;;;;;;;5078049;28;20107;-72
2022/04/27 02:03:21;;;;;;;16.88;11.02;;;;;;;;;;5078422;28;20095;-71
2022/04/27 02:05:47;;;;;;;16.25;10.65;;;;;;;;;;5081581;28;20027;-72
2022/04/27 02:08:17;;;;;;;15.68;10.00;;;;;;;;;;5070887;28;20016;-71
2022/04/27 02:10:45;;;;;;;14.43;9.13;;;;;;;;;;5078857;28;20043;-72
2022/04/27 02:13:11;;;;;;;15.60;10.35;;;;;;;;;;5075742;28;20044;-72
2022/04/27 02:15:38;;;;;;;19.13;11.20;;;;;;;;;;5070597;28;20044;-73
2022/04/27 02:18:04;;;;;;;15.48;9.95;;;;;;;;;;5072065;28;20423;-73
2022/04/27 02:20:31;;;;;;;17.60;9.70;;;;;;;;;;5064412;28;20039;-73
2022/04/27 02:22:57;;;;;;;14.73;10.02;;;;;;;;;;5076103;28;20051;-72
2022/04/27 02:25:23;;;;;;;17.92;9.65;;;;;;;;;;5072912;28;20424;-72
2022/04/27 02:27:50;;;;;;;17.67;11.95;;;;;;;;;;5075819;28;20050;-74
2022/04/27 02:30:16;;;;;;;14.48;9.75;;;;;;;;;;5078082;28;20024;-71
2022/04/27 02:32:45;;;;;;;17.83;10.70;;;;;;;;;;5075077;28;20301;-72
2022/04/27 02:35:11;;;;;;;18.35;10.30;;;;;;;;;;5077796;28;20088;-72
2022/04/27 02:37:38;;;;;;;14.35;9.48;;;;;;;;;;5068510;28;20056;-72
2022/04/27 02:40:04;;;;;;;15.05;9.40;;;;;;;;;;5080304;28;20033;-72
2022/04/27 02:42:30;;;;;;;13.25;9.18;;;;;;;;;;5066591;28;20329;-72
2022/04/27 02:44:57;;;;;;;16.13;9.35;;;;;;;;;;5082200;28;20029;-72
2022/04/27 02:47:23;;;;;;;15.90;10.93;;;;;;;;;;5085598;28;20025;-72
2022/04/27 02:52:34;;;;;;;14.93;9.75;;;;;;;;;;5078928;28;20257;-71
2022/04/27 02:55:00;;;;;;;16.20;9.15;;;;;;;;;;5080240;28;20175;-72
2022/04/27 02:57:26;;;;;;;21.05;10.40;;;;;;;;;;5072370;28;20032;-71
2022/04/27 02:59:52;;;;;;;15.02;10.00;;;;;;;;;;5078004;28;20020;-72
2022/04/27 03:02:18;;;;;;;19.13;10.90;;;;;;;;;;5078738;28;20020;-71
2022/04/27 03:04:44;;;;;;;18.25;9.88;;;;;;;;;;5083895;28;20032;-73
2022/04/27 03:07:11;;;;;;;17.20;10.38;;;;;;;;;;5091494;28;20423;-71
2022/04/27 03:09:37;;;;;;;15.27;9.45;;;;;;;;;;5087011;28;20056;-72
2022/04/27 03:12:03;;;;;;;17.65;9.40;;;;;;;;;;5078673;28;20586;-72
2022/04/27 03:14:29;;;;;;;15.13;8.80;;;;;;;;;;5078434;28;20052;-73
2022/04/27 03:16:56;;;;;;;14.93;9.45;;;;;;;;;;5080509;28;20123;-72
2022/04/27 03:19:22;;;;;;;17.48;10.10;;;;;;;;;;5081657;28;20518;-72
2022/04/27 03:21:48;;;;;;;16.40;10.55;;;;;;;;;;5084937;28;20033;-71
2022/04/27 03:24:15;;;;;;;14.52;10.13;;;;;;;;;;5076069;28;20029;-72
2022/04/27 03:26:41;;;;;;;15.10;9.18;;;;;;;;;;5079283;28;20113;-73
2022/04/27 03:29:07;;;;;;;15.75;8.60;;;;;;;;;;5079243;28;20175;-72
2022/04/27 03:31:33;;;;;;;14.95;8.98;;;;;;;;;;5076235;28;20107;-72
2022/04/27 03:33:59;;;;;;;21.45;9.40;;;;;;;;;;5077985;28;20113;-71
2022/04/27 03:36:26;;;;;;;18.77;10.32;;;;;;;;;;5072038;28;20033;-72
2022/04/27 03:38:52;;;;;;;15.10;9.00;;;;;;;;;;5079405;28;20025;-73
2022/04/27 03:41:22;;;;;;;16.42;8.98;;;;;;;;;;5076955;28;20044;-73
2022/04/27 03:43:49;;;;;;;14.20;8.85;;;;;;;;;;5079429;28;20021;-72
2022/04/27 03:46:15;;;;;;;13.63;8.77;;;;;;;;;;5074101;28;20024;-74
2022/04/27 03:48:41;;;;;;;14.68;8.82;;;;;;;;;;5077183;28;20041;-72
2022/04/27 03:51:07;;;;;;;14.57;8.02;;;;;;;;;;5083317;28;20142;-72
2022/04/27 03:53:33;;;;;;;13.68;8.07;;;;;;;;;;5075192;28;20347;-73
2022/04/27 03:55:59;;;;;;;11.50;6.95;;;;;;;;;;5077425;28;20028;-71
2022/04/27 03:58:26;;;;;;;10.80;6.72;;;;;;;;;;5075878;28;20029;-72
2022/04/27 04:00:52;;;;;;;9.32;7.00;;;;;;;;;;5077923;28;20055;-72
2022/04/27 04:03:18;;;;;;;12.07;7.00;;;;;;;;;;5075456;28;20033;-74
2022/04/27 04:05:44;;;;;;;14.50;7.72;;;;;;;;;;5081942;28;20021;-74
2022/04/27 04:08:11;;;;;;;10.70;7.20;;;;;;;;;;5079616;28;20116;-72
2022/04/27 04:10:37;;;;;;;10.45;6.90;;;;;;;;;;5079805;28;20073;-72
2022/04/27 04:13:03;;;;;;;12.95;7.22;;;;;;;;;;5080114;28;20152;-73
2022/04/27 04:15:29;;;;;;;10.95;7.07;;;;;;;;;;5082151;28;20040;-73
2022/04/27 04:17:56;;;;;;;10.65;6.53;;;;;;;;;;5079052;28;20028;-72
2022/04/27 04:20:22;;;;;;;11.75;6.97;;;;;;;;;;5078522;28;20025;-73
2022/04/27 04:22:48;;;;;;;10.70;6.88;;;;;;;;;;5078555;28;20365;-73
2022/04/27 04:30:45;;;;;;;9.80;6.55;;;;;;;;;;5076268;28;20063;-74
2022/04/27 04:33:11;;;;;;;10.82;6.63;;;;;;;;;;5079629;28;20036;-72
2022/04/27 04:35:38;;;;;;;13.23;7.03;;;;;;;;;;5088952;28;20070;-72
2022/04/27 04:38:04;;;;;;;9.07;6.55;;;;;;;;;;5069421;28;20026;-72
2022/04/27 04:40:31;;;;;;;11.35;6.68;;;;;;;;;;5079469;28;20115;-71
2022/04/27 04:42:57;;;;;;;15.55;7.13;;;;;;;;;;5079648;28;20031;-71
2022/04/27 04:45:23;;;;;;;8.93;6.20;;;;;;;;;;5082309;28;20008;-72
2022/04/27 04:47:50;;;;;;;11.30;7.50;;;;;;;;;;5079749;28;20247;-72
2022/04/27 04:50:16;;;;;;;10.23;6.20;;;;;;;;;;5076840;28;20040;-73
2022/04/27 04:52:42;;;;;;;12.48;6.15;;;;;;;;;;5076020;28;20435;-72
2022/04/27 04:55:09;;;;;;;11.63;6.65;;;;;;;;;;5071491;28;20120;-72
2022/04/27 04:57:35;;;;;;;10.63;6.43;;;;;;;;;;5071197;28;20040;-72
2022/04/27 05:00:01;;;;;;;11.25;7.25;;;;;;;;;;5081581;28;20044;-73
2022/04/27 05:02:31;;;;;;;12.18;7.18;;;;;;;;;;5073268;28;20068;-72
2022/04/27 05:04:58;;;;;;;10.15;6.53;;;;;;;;;;5095165;28;20040;-72
2022/04/27 05:07:24;;;;;;;13.82;7.32;;;;;;;;;;5067907;28;20040;-73
2022/04/27 05:09:50;;;;;;;12.48;8.00;;;;;;;;;;5076190;28;20021;-71
2022/04/27 05:12:16;;;;;;;12.13;7.38;;;;;;;;;;5078735;28;20104;-73
2022/04/27 05:14:42;;;;;;;12.63;7.55;;;;;;;;;;5085928;28;20437;-72
2022/04/27 05:17:08;;;;;;;10.25;6.38;;;;;;;;;;5070287;28;20066;-72
2022/04/27 05:19:37;;;;;;;10.50;6.75;;;;;;;;;;5070808;28;20029;-72
2022/04/27 05:22:03;;;;;;;10.43;6.55;;;;;;;;;;5078645;28;20020;-72
2022/04/27 05:24:29;;;;;;;8.55;6.63;;;;;;;;;;5080132;28;20028;-73
2022/04/27 05:26:55;;;;;;;14.35;7.32;;;;;;;;;;5077423;28;20129;-73
2022/04/27 05:32:07;;;;;;;10.50;7.07;;;;;;;;;;5078388;28;20055;-73
2022/04/27 05:34:33;;;;;;;12.45;8.10;;;;;;;;;;5071504;28;20042;-72
2022/04/27 05:37:00;;;;;;;10.60;6.55;;;;;;;;;;5073014;28;20115;-73
2022/04/27 05:39:26;;;;;;;12.93;6.93;;;;;;;;;;5078230;28;20078;-72
2022/04/27 05:41:53;;;;;;;14.95;7.72;;;;;;;;;;5068443;28;20040;-72
2022/04/27 05:44:22;;;;;;;10.32;7.15;;;;;;;;;;5076501;28;20063;-73
2022/04/27 05:46:49;;;;;;;10.82;7.55;;;;;;;;;;5077260;28;20024;-72
2022/04/27 05:49:15;;;;;;;14.45;7.53;;;;;;;;;;5081766;28;20051;-73
2022/04/27 05:51:42;;;;;;;12.32;6.97;;;;;;;;;;5077067;28;20046;-73
2022/04/27 05:54:08;;;;;;;13.13;7.68;;;;;;;;;;5072871;28;20080;-72
2022/04/27 05:56:34;;;;;;;17.65;7.10;;;;;;;;;;5063462;28;20158;-72
2022/04/27 05:59:01;;;;;;;15.48;8.13;;;;;;;;;;5076713;28;20029;-72
2022/04/27 06:01:28;;;;;;;14.50;7.53;;;;;;;;;;5065424;28;20143;-73
2022/04/27 06:03:54;;;;;;;14.50;8.13;;;;;;;;;;5078739;28;20573;-73
2022/04/27 06:06:21;;;;;;;17.63;9.68;;;;;;;;;;5074478;28;20110;-73
2022/04/27 06:08:47;;;;;;;13.23;8.02;;;;;;;;;;5077087;28;20024;-73
2022/04/27 06:11:13;;;;;;;15.98;7.93;;;;;;;;;;5063824;28;20084;-72
2022/04/27 06:13:39;;;;;;;15.30;8.70;;;;;;;;;;5091846;28;20080;-72
2022/04/27 06:16:05;;;;;;;18.55;11.40;;;;;;;;;;5080867;28;20043;-73
2022/04/27 06:18:31;;;;;;;13.38;8.20;;;;;;;;;;5070507;28;20070;-73
2022/04/27 06:20:58;;;;;;;14.45;8.55;;;;;;;;;;5072207;28;20031;-73
2022/04/27 06:23:24;;;;;;;14.38;8.77;;;;;;;;;;5072137;28;20024;-73
2022/04/27 06:25:50;;;;;;;13.80;8.80;;;;;;;;;;5074185;28;20028;-72
2022/04/27 06:28:17;;;;;;;15.75;8.82;;;;;;;;;;5074081;28;20028;-72
2022/04/27 06:30:43;;;;;;;24.27;8.18;;;;;;;;;;5070845;28;20066;-72
2022/04/27 06:33:09;;;;;;;12.82;9.13;;;;;;;;;;5072499;28;20108;-73
2022/04/27 06:35:35;;;;;;;13.82;8.27;;;;;;;;;;5078536;28;20108;-75
2022/04/27 06:38:01;;;;;;;16.98;9.55;;;;;;;;;;5072642;28;20088;-74
2022/04/27 06:40:28;;;;;;;16.73;8.30;;;;;;;;;;5071065;28;20139;-74
2022/04/27 06:42:56;;;;;;;15.23;8.50;;;;;;;;;;5077355;28;20020;-72
2022/04/27 06:45:28;;;;;;;14.52;8.55;;;;;;;;;;5077851;28;20075;-72
2022/04/27 06:47:56;;;;;;;12.88;8.48;;;;;;;;;;5071555;28;20100;-72
2022/04/27 06:50:22;;;;;;;15.35;8.80;;;;;;;;;;5074014;28;20125;-73
2022/04/27 06:52:49;;;;;;;14.55;8.85;;;;;;;;;;5075106;28;20086;-73
2022/04/27 06:55:16;;;;;;;14.43;9.18;;;;;;;;;;5077884;28;20055;-73
2022/04/27 06:57:42;;;;;;;18.38;9.13;;;;;;;;;;5068969;28;20108;-73
2022/04/27 07:00:08;;;;;;;21.45;10.10;;;;;;;;;;5075951;28;20033;-73
2022/04/27 07:02:35;;;;;;;18.23;10.23;;;;;;;;;;5072953;28;20032;-72
2022/04/27 07:05:02;;;;;;;18.08;9.70;;;;;;;;;;5074874;28;20070;-73
2022/04/27 07:07:28;;;;;;;17.17;9.95;;;;;;;;;;5084422;28;20127;-74
2022/04/27 07:09:54;;;;;;;17.33;9.85;;;;;;;;;;5075002;28;20317;-73
2022/04/27 07:12:20;;;;;;;19.70;10.07;;;;;;;;;;5077258;28;20092;-71
2022/04/27 07:14:48;;;;;;;17.13;9.25;;;;;;;;;;5074460;28;20507;-73
2022/04/27 07:17:14;;;;;;;15.00;10.27;;;;;;;;;;5078799;28;20043;-73
2022/04/27 07:19:40;;;;;;;18.48;9.93;;;;;;;;;;5078260;28;20029;-73
2022/04/27 07:22:06;;;;;;;17.27;9.57;;;;;;;;;;5079222;28;20481;-73
2022/04/27 07:24:36;;;;;;;16.10;9.07;;;;;;;;;;5075103;28;20367;-73
2022/04/27 07:27:02;;;;;;;21.00;10.52;;;;;;;;;;5076449;28;20093;-73
2022/04/27 07:29:28;;;;;;;18.60;9.52;;;;;;;;;;5080602;28;20359;-74
2022/04/27 07:31:54;;;;;;;22.02;10.70;;;;;;;;;;5097796;28;20035;-74
2022/04/27 07:34:20;;;;;;;14.50;9.98;;;;;;;;;;5068579;28;20048;-73
2022/04/27 07:36:47;;;;;;;20.00;9.80;;;;;;;;;;5077651;28;20032;-75
2022/04/27 07:39:13;;;;;;;16.35;10.35;;;;;;;;;;5077556;28;20043;-73
2022/04/27 07:41:39;;;;;;;22.48;10.55;;;;;;;;;;5075259;28;20796;-73
2022/04/27 07:44:06;;;;;;;19.75;9.73;;;;;;;;;;5069962;28;20036;-74
2022/04/27 07:46:32;;;;;;;16.77;10.75;;;;;;;;;;5075795;28;20021;-74
2022/04/27 07:48:59;;;;;;;20.45;10.30;;;;;;;;;;5077192;28;20123;-76
2022/04/27 07:51:25;;;;;;;17.55;10.70;;;;;;;;;;5079512;28;20111;-74
2022/04/27 07:53:51;;;;;;;15.77;10.65;;;;;;;;;;5068062;28;20502;-77
2022/04/27 07:56:17;;;;;;;20.92;9.60;;;;;;;;;;5072825;28;20032;-76
2022/04/27 07:58:43;;;;;;;15.32;9.55;;;;;;;;;;5074488;28;20032;-76
2022/04/27 08:01:09;;;;;;;13.05;8.98;;;;;;;;;;5069872;28;20385;-76
2022/04/27 08:03:36;;;;;;;22.67;10.07;;;;;;;;;;5073091;28;21141;-75
2022/04/27 08:06:03;;;;;;;19.35;10.32;;;;;;;;;;5071444;28;20036;-73
2022/04/27 08:08:29;;;;;;;18.10;10.00;;;;;;;;;;5073788;28;20021;-74
2022/04/27 08:10:56;;;;;;;14.13;8.80;;;;;;;;;;5067477;28;20024;-74
2022/04/27 08:13:22;;;;;;;15.93;9.38;;;;;;;;;;5068828;28;20087;-72
2022/04/27 08:15:48;;;;;;;18.85;10.07;;;;;;;;;;5068595;28;20097;-76
2022/04/27 08:18:14;;;;;;;16.25;9.77;;;;;;;;;;5071753;28;20039;-75
2022/04/27 08:23:29;;;;;;;18.75;11.40;;;;;;;;;;5068750;28;20115;-75
2022/04/27 08:25:55;;;;;;;13.65;9.60;;;;;;;;;;5070744;28;20028;-75
2022/04/27 08:28:21;;;;;;;14.95;10.35;;;;;;;;;;5077793;28;20066;-74
2022/04/27 08:30:49;;;;;;;17.67;10.63;;;;;;;;;;5074394;28;20092;-75
2022/04/27 08:33:15;;;;;;;15.93;9.35;;;;;;;;;;5088995;28;20356;-74
2022/04/27 08:35:41;;;;;;;15.23;9.63;;;;;;;;;;5069860;28;20094;-76
2022/04/27 08:38:09;;;;;;;17.50;11.32;;;;;;;;;;5074908;28;20223;-76
2022/04/27 08:40:36;;;;;;;15.55;9.27;;;;;;;;;;5070242;28;20024;-76
2022/04/27 08:43:03;;;;;;;16.50;10.38;;;;;;;;;;5072947;28;20076;-77
2022/04/27 08:45:29;;;;;;;14.93;10.50;;;;;;;;;;5072871;28;20044;-76
2022/04/27 08:47:56;;;;;;;14.35;8.57;;;;;;;;;;5076593;28;20085;-76
2022/04/27 08:50:23;;;;;;;13.90;9.25;;;;;;;;;;5076071;28;20430;-77
2022/04/27 08:52:50;;;;;;;13.82;9.23;;;;;;;;;;5072908;28;20169;-75
2022/04/27 08:55:16;;;;;;;19.17;11.25;;;;;;;;;;5073271;28;20032;-75
2022/04/27 08:57:45;;;;;;;17.33;10.05;;;;;;;;;;5077487;28;20047;-74
2022/04/27 09:00:19;;;;;;;13.05;8.95;;;;;;;;;;5073259;28;20028;-76
2022/04/27 09:02:46;;;;;;;11.82;8.93;;;;;;;;;;5066146;28;20487;-76
2022/04/27 09:05:13;;;;;;;13.88;9.20;;;;;;;;;;5068453;28;20079;-76
2022/04/27 09:07:40;;;;;;;14.50;9.40;;;;;;;;;;5064610;28;20117;-73
2022/04/27 09:10:07;;;;;;;14.27;9.50;;;;;;;;;;5066756;28;20077;-74
2022/04/27 09:12:34;;;;;;;15.98;10.45;;;;;;;;;;5075122;28;20047;-75
2022/04/27 09:15:05;;;;;;;12.88;9.63;;;;;;;;;;5068426;28;20114;-77
2022/04/27 09:23:06;;;;;;;11.98;8.82;;;;;;;;;;5063155;28;20039;-76
2022/04/27 09:25:35;;;;;;;15.20;9.90;;;;;;;;;;5065254;28;20065;-74
2022/04/27 09:28:02;;;;;;;14.77;9.93;;;;;;;;;;5069811;28;20029;-74
2022/04/27 09:30:29;;;;;;;15.15;9.05;;;;;;;;;;5070832;28;20044;-74
2022/04/27 09:32:56;;;;;;;14.82;9.40;;;;;;;;;;5076801;28;20044;-77
2022/04/27 09:35:35;;;;;;;15.43;10.25;;;;;;;;;;5076948;28;20036;-75
2022/04/27 09:38:20;;;;;;;16.38;9.63;;;;;;;;;;5063860;28;20031;-74
2022/04/27 09:40:50;;;;;;;15.38;10.93;;;;;;;;;;5071113;28;20214;-73
2022/04/27 09:43:17;;;;;;;14.00;10.20;;;;;;;;;;5067376;28;20035;-76
2022/04/27 09:45:43;;;;;;;13.68;8.82;;;;;;;;;;5069268;28;20348;-74
2022/04/27 09:48:17;;;;;;;14.15;9.77;;;;;;;;;;5079607;28;20088;-75
2022/04/27 09:50:47;;;;;;;14.43;10.50;;;;;;;;;;5064124;28;20047;-73
2022/04/27 09:53:14;;;;;;;11.77;8.73;;;;;;;;;;5078157;28;20020;-74
2022/04/27 09:55:48;;;;;;;15.50;10.23;;;;;;;;;;5078831;28;20032;-73
2022/04/27 09:58:16;;;;;;;13.55;9.93;;;;;;;;;;5067086;28;20028;-76
2022/04/27 10:00:45;;;;;;;14.48;9.00;;;;;;;;;;5075039;28;20172;-74
2022/04/27 10:03:15;;;;;;;15.35;9.43;;;;;;;;;;5075601;28;20371;-74
2022/04/27 10:05:43;;;;;;;21.88;9.82;;;;;;;;;;5073923;28;20418;-75
2022/04/27 10:08:09;;;;;;;14.40;9.50;;;;;;;;;;5067837;28;20021;-77
2022/04/27 10:10:37;;;;;;;14.23;9.23;;;;;;;;;;5062130;28;20112;-76
2022/04/27 10:13:03;;;;;;;15.60;8.70;;;;;;;;;;5069784;28;20047;-76
2022/04/27 10:15:31;;;;;;;13.35;9.40;;;;;;;;;;5070991;28;20124;-75
2022/04/27 10:17:57;;;;;;;14.35;9.00;;;;;;;;;;5066360;28;20020;-74
2022/04/27 10:20:27;;;;;;;12.68;8.00;;;;;;;;;;5071395;28;20044;-76
2022/04/27 10:22:54;;;;;;;13.05;9.95;;;;;;;;;;5060053;28;20453;-75
2022/04/27 10:25:21;;;;;;;15.88;9.13;;;;;;;;;;5071981;28;20454;-74
2022/04/27 10:27:47;;;;;;;13.65;9.27;;;;;;;;;;5089248;28;20051;-74
2022/04/27 10:30:14;;;;;;;13.25;8.55;;;;;;;;;;5073961;28;20051;-76
2022/04/27 10:32:47;;;;;;;14.32;8.98;;;;;;;;;;5089189;28;20024;-78
2022/04/27 10:35:19;;;;;;;13.57;8.73;;;;;;;;;;5074947;28;20027;-75
2022/04/27 10:37:54;;;;;;;13.98;9.43;;;;;;;;;;5070995;28;20142;-76
2022/04/27 10:40:29;;;;;;;14.35;9.30;;;;;;;;;;5071899;28;20024;-76
2022/04/27 10:43:08;;;;;;;10.80;8.32;;;;;;;;;;5077147;28;20015;-76
2022/04/27 10:45:34;;;;;;;13.70;9.35;;;;;;;;;;5063258;28;20401;-74
2022/04/27 10:48:04;;;;;;;12.18;8.25;;;;;;;;;;5079952;28;20691;-75
2022/04/27 10:50:30;;;;;;;13.80;9.20;;;;;;;;;;5069261;28;20060;-75
2022/04/27 10:53:00;;;;;;;14.23;9.43;;;;;;;;;;5074540;28;20181;-74
2022/04/27 10:55:40;;;;;;;14.07;9.30;;;;;;;;;;5068031;28;20506;-75
2022/04/27 10:58:12;;;;;;;15.70;9.20;;;;;;;;;;5081931;28;20053;-74
2022/04/27 11:00:57;;;;;;;12.65;8.75;;;;;;;;;;5072051;28;20496;-75
2022/04/27 11:03:24;;;;;;;13.10;8.77;;;;;;;;;;5073294;28;20024;-75
2022/04/27 11:05:51;;;;;;;14.32;10.18;;;;;;;;;;5077223;28;20127;-77
2022/04/27 11:08:36;;;;;;;14.00;9.70;;;;;;;;;;5072819;28;20096;-75
2022/04/27 11:11:06;;;;;;;14.50;8.98;;;;;;;;;;5071932;28;20032;-76
2022/04/27 11:13:35;;;;;;;15.80;10.13;;;;;;;;;;5075045;28;20418;-74
2022/04/27 11:16:12;;;;;;;10.85;9.23;;;;;;;;;;5090760;28;20047;-75
2022/04/27 11:18:57;;;;;;;13.35;8.07;;;;;;;;;;5065375;28;20060;-75
2022/04/27 11:21:24;;;;;;;13.50;9.32;;;;;;;;;;5068619;28;20120;-76
2022/04/27 11:23:51;;;;;;;15.98;8.68;;;;;;;;;;5067268;28;20040;-76
2022/04/27 11:26:17;;;;;;;14.70;8.80;;;;;;;;;;5067789;28;20036;-75
2022/04/27 11:28:44;;;;;;;10.68;8.50;;;;;;;;;;5089296;28;20073;-77
2022/04/27 11:31:10;;;;;;;9.65;7.97;;;;;;;;;;5085000;28;20033;-75
2022/04/27 11:33:40;;;;;;;9.98;8.68;;;;;;;;;;5068827;28;20028;-74
2022/04/27 11:36:06;;;;;;;12.52;8.68;;;;;;;;;;5071033;28;20052;-77
2022/04/27 11:38:34;;;;;;;11.82;7.97;;;;;;;;;;5067735;28;20025;-75
2022/04/27 11:41:02;;;;;;;12.77;8.07;;;;;;;;;;5071366;28;20463;-76
2022/04/27 11:43:28;;;;;;;9.80;8.80;;;;;;;;;;5071017;28;20646;-77
2022/04/27 11:45:57;;;;;;;11.52;8.15;;;;;;;;;;5069421;28;20031;-75
2022/04/27 11:48:24;;;;;;;10.77;7.95;;;;;;;;;;5066096;28;20033;-75
2022/04/27 11:50:51;;;;;;;12.55;7.80;;;;;;;;;;5074630;28;20880;-74
2022/04/27 11:53:17;;;;;;;12.70;8.50;;;;;;;;;;5069056;28;20112;-75
2022/04/27 11:55:49;;;;;;;11.85;8.23;;;;;;;;;;5081646;28;20043;-75
2022/04/27 11:58:22;;;;;;;12.30;9.00;;;;;;;;;;5070029;28;20051;-76
2022/04/27 12:00:49;;;;;;;22.33;9.55;;;;;;;;;;5067186;28;20112;-75
2022/04/27 12:03:15;;;;;;;11.98;9.23;;;;;;;;;;5064821;28;20024;-75
2022/04/27 12:05:41;;;;;;;10.52;8.70;;;;;;;;;;5069006;28;20028;-76
2022/04/27 12:08:11;;;;;;;11.38;8.35;;;;;;;;;;5068129;28;20040;-76
2022/04/27 12:10:41;;;;;;;10.48;8.23;;;;;;;;;;5070326;28;20421;-75
2022/04/27 12:13:08;;;;;;;11.70;8.65;;;;;;;;;;5068091;28;20062;-76
2022/04/27 12:15:34;;;;;;;11.90;7.78;;;;;;;;;;5069049;28;20092;-75
2022/04/27 12:18:03;;;;;;;12.30;8.25;;;;;;;;;;5070444;28;20067;-74
2022/04/27 12:20:41;;;;;;;10.73;8.50;;;;;;;;;;5068273;28;20105;-76
2022/04/27 12:23:08;;;;;;;11.43;7.72;;;;;;;;;;5067961;28;20063;-74
2022/04/27 12:25:49;;;;;;;11.52;8.40;;;;;;;;;;5066599;28;20053;-74
2022/04/27 12:28:18;;;;;;;12.63;8.35;;;;;;;;;;5047045;28;20049;-74
2022/04/27 12:30:49;;;;;;;13.15;7.70;;;;;;;;;;5055719;28;20109;-75
2022/04/27 12:33:16;;;;;;;11.65;8.40;;;;;;;;;;5057245;28;20032;-75
2022/04/27 12:38:31;;;;;;;12.40;8.00;;;;;;;;;;5049142;28;20056;-75
2022/04/27 12:40:59;;;;;;;10.38;8.55;;;;;;;;;;5065429;28;20144;-75
2022/04/27 12:43:25;;;;;;;9.93;8.25;;;;;;;;;;5049549;28;20055;-76
2022/04/27 12:46:11;;;;;;;11.30;8.13;;;;;;;;;;5046411;28;20036;-76
2022/04/27 12:48:38;;;;;;;11.25;9.07;;;;;;;;;;5045120;28;20033;-76
2022/04/27 12:51:05;;;;;;;12.10;8.82;;;;;;;;;;5040846;28;20033;-77
2022/04/27 12:53:32;;;;;;;12.43;9.15;;;;;;;;;;5056730;28;20124;-77
2022/04/27 12:56:02;;;;;;;11.65;7.65;;;;;;;;;;5041687;28;20029;-76
2022/04/27 12:58:29;;;;;;;13.35;8.07;;;;;;;;;;5038035;28;20037;-80
2022/04/27 13:00:55;;;;;;;12.77;8.43;;;;;;;;;;5047274;28;20036;-81
2022/04/27 13:03:23;;;;;;;12.18;7.80;;;;;;;;;;5046209;28;20154;-74
2022/04/27 13:05:50;;;;;;;9.00;7.75;;;;;;;;;;5057054;28;20051;-76
2022/04/27 13:08:17;;;;;;;10.75;7.95;;;;;;;;;;5048754;28;20017;-77
2022/04/27 13:13:29;;;;;;;9.55;7.07;;;;;;;;;;5044151;28;20162;-79
2022/04/27 13:15:56;;;;;;;11.95;7.25;;;;;;;;;;5060539;28;20033;-77
2022/04/27 13:18:22;;;;;;;8.65;6.72;;;;;;;;;;5048060;28;20040;-80
2022/04/27 13:20:52;;;;;;;10.15;7.95;;;;;;;;;;5037882;28;20064;-79
2022/04/27 13:23:19;;;;;;;10.88;8.02;;;;;;;;;;5038729;28;20511;-77
2022/04/27 13:25:46;;;;;;;9.73;7.78;;;;;;;;;;5040904;28;20467;-78
2022/04/27 13:28:12;;;;;;;13.63;8.80;;;;;;;;;;5046261;28;20025;-78
2022/04/27 13:30:43;;;;;;;10.90;7.47;;;;;;;;;;5041691;28;20021;-78
2022/04/27 13:33:09;;;;;;;11.93;7.63;;;;;;;;;;5044753;28;20506;-77
2022/04/27 13:35:38;;;;;;;8.98;7.20;;;;;;;;;;5046830;28;20067;-79
2022/04/27 13:38:06;;;;;;;11.90;6.75;;;;;;;;;;5045648;28;20196;-79
2022/04/27 13:40:33;;;;;;;8.88;6.80;;;;;;;;;;5040447;28;20036;-78
2022/04/27 13:42:59;;;;;;;10.68;7.05;;;;;;;;;;5061960;28;20442;-76
2022/04/27 13:45:25;;;;;;;8.85;7.03;;;;;;;;;;5048652;28;20479;-78
2022/04/27 13:47:51;;;;;;;8.48;6.40;;;;;;;;;;5040242;28;20045;-80
2022/04/27 13:50:17;;;;;;;8.45;6.95;;;;;;;;;;5043617;28;20093;-78
2022/04/27 13:52:43;;;;;;;12.10;7.80;;;;;;;;;;5044466;28;20040;-77
2022/04/27 13:55:11;;;;;;;10.07;7.03;;;;;;;;;;5061578;28;20620;-77
2022/04/27 13:57:37;;;;;;;11.07;6.50;;;;;;;;;;5057908;28;20061;-79
2022/04/27 14:00:04;;;;;;;8.43;7.28;;;;;;;;;;5053685;28;20036;-78
2022/04/27 14:02:30;;;;;;;10.98;7.03;;;;;;;;;;5047490;28;20047;-76
2022/04/27 14:04:57;;;;;;;12.18;7.68;;;;;;;;;;5046847;28;20592;-77
2022/04/27 14:07:25;;;;;;;10.60;7.60;;;;;;;;;;5048871;28;20025;-77
2022/04/27 14:09:51;;;;;;;11.07;7.72;;;;;;;;;;5049822;28;20039;-77
2022/04/27 14:15:02;;;;;;;8.82;7.10;;;;;;;;;;5053395;28;20692;-76
2022/04/27 14:20:12;;;;;;;11.52;7.80;;;;;;;;;;5061235;28;20470;-78
2022/04/27 14:22:38;;;;;;;10.52;7.70;;;;;;;;;;5046950;28;20154;-77
2022/04/27 14:25:06;;;;;;;11.57;7.13;;;;;;;;;;5041436;28;20029;-77
2022/04/27 14:27:33;;;;;;;9.98;6.47;;;;;;;;;;5041010;28;20028;-78
2022/04/27 14:29:59;;;;;;;9.77;7.75;;;;;;;;;;5049381;28;20048;-77
2022/04/27 14:32:25;;;;;;;12.43;8.00;;;;;;;;;;5049437;28;20083;-79
2022/04/27 14:34:51;;;;;;;9.70;7.10;;;;;;;;;;5042167;28;20111;-76
2022/04/27 14:37:17;;;;;;;8.05;7.03;;;;;;;;;;5050704;28;20049;-76
2022/04/27 14:39:43;;;;;;;10.35;6.85;;;;;;;;;;5052802;28;20500;-76
2022/04/27 14:42:11;;;;;;;10.52;6.97;;;;;;;;;;5060614;28;20031;-76
2022/04/27 14:44:37;;;;;;;13.88;7.03;;;;;;;;;;5058104;28;20028;-75
2022/04/27 14:47:04;;;;;;;10.35;7.50;;;;;;;;;;5063199;28;20469;-76
2022/04/27 14:49:30;;;;;;;10.07;7.15;;;;;;;;;;5049842;28;20040;-75
2022/04/27 14:51:56;;;;;;;9.27;7.50;;;;;;;;;;5054173;28;20045;-75
2022/04/27 14:54:22;;;;;;;11.68;6.88;;;;;;;;;;5057646;28;20059;-79
2022/04/27 14:56:48;;;;;;;15.23;7.28;;;;;;;;;;5061493;28;20458;-76
2022/04/27 14:59:14;;;;;;;11.50;7.20;;;;;;;;;;5065384;28;20025;-76